sensor_id;sensor_type;location;lat;lon;timestamp;temperature;humidity
22006;DHT22;11167;46.988;15.470;2023-06-22T00:00:43;25.80;74.80
22006;DHT22;11167;46.988;15.470;2023-06-22T00:02:45;25.80;74.80
22006;DHT22;11167;46.988;15.470;2023-06-22T00:04:46;25.70;74.70
22006;DHT22;11167;46.988;15.470;2023-06-22T00:06:47;25.70;75.50
22006;DHT22;11167;46.988;15.470;2023-06-22T00:08:50;25.70;74.70
22006;DHT22;11167;46.988;15.470;2023-06-22T00:10:51;25.60;74.50
22006;DHT22;11167;46.988;15.470;2023-06-22T00:12:52;25.70;75.50
22006;DHT22;11167;46.988;15.470;2023-06-22T00:14:53;25.60;74.70
22006;DHT22;11167;46.988;15.470;2023-06-22T00:16:54;25.60;74.60
22006;DHT22;11167;46.988;15.470;2023-06-22T00:19:00;25.60;74.60
22006;DHT22;11167;46.988;15.470;2023-06-22T00:21:03;25.50;74.50
22006;DHT22;11167;46.988;15.470;2023-06-22T00:23:06;25.50;74.50
22006;DHT22;11167;46.988;15.470;2023-06-22T00:25:11;25.50;74.50
22006;DHT22;11167;46.988;15.470;2023-06-22T00:27:14;25.50;74.60
22006;DHT22;11167;46.988;15.470;2023-06-22T00:29:16;25.50;74.50
22006;DHT22;11167;46.988;15.470;2023-06-22T00:31:19;25.50;74.50
22006;DHT22;11167;46.988;15.470;2023-06-22T00:33:20;25.40;74.40
22006;DHT22;11167;46.988;15.470;2023-06-22T00:35:21;25.50;74.60
22006;DHT22;11167;46.988;15.470;2023-06-22T00:37:23;25.40;74.40
22006;DHT22;11167;46.988;15.470;2023-06-22T00:39:26;25.40;74.50
22006;DHT22;11167;46.988;15.470;2023-06-22T00:41:27;25.30;74.50
22006;DHT22;11167;46.988;15.470;2023-06-22T00:43:31;25.30;74.40
22006;DHT22;11167;46.988;15.470;2023-06-22T00:45:32;25.30;74.40
22006;DHT22;11167;46.988;15.470;2023-06-22T00:47:36;25.30;74.40
22006;DHT22;11167;46.988;15.470;2023-06-22T00:49:38;25.30;74.40
22006;DHT22;11167;46.988;15.470;2023-06-22T00:51:39;25.30;74.40
22006;DHT22;11167;46.988;15.470;2023-06-22T00:53:43;25.20;74.30
22006;DHT22;11167;46.988;15.470;2023-06-22T00:55:45;25.20;74.30
22006;DHT22;11167;46.988;15.470;2023-06-22T00:57:52;25.20;74.30
22006;DHT22;11167;46.988;15.470;2023-06-22T00:59:56;25.20;74.30
22006;DHT22;11167;46.988;15.470;2023-06-22T01:01:58;25.10;74.30
22006;DHT22;11167;46.988;15.470;2023-06-22T01:04:01;25.10;74.30
22006;DHT22;11167;46.988;15.470;2023-06-22T01:06:07;25.10;74.30
22006;DHT22;11167;46.988;15.470;2023-06-22T01:10:21;25.10;74.30
22006;DHT22;11167;46.988;15.470;2023-06-22T01:12:24;25.00;74.30
22006;DHT22;11167;46.988;15.470;2023-06-22T01:14:46;25.00;74.30
22006;DHT22;11167;46.988;15.470;2023-06-22T01:16:44;25.00;74.30
22006;DHT22;11167;46.988;15.470;2023-06-22T01:18:47;25.00;74.40
22006;DHT22;11167;46.988;15.470;2023-06-22T01:20:50;25.00;74.30
22006;DHT22;11167;46.988;15.470;2023-06-22T01:23:20;25.00;74.30
22006;DHT22;11167;46.988;15.470;2023-06-22T01:25:21;24.90;74.20
22006;DHT22;11167;46.988;15.470;2023-06-22T01:27:59;24.90;74.30
22006;DHT22;11167;46.988;15.470;2023-06-22T01:30:02;24.80;74.20
22006;DHT22;11167;46.988;15.470;2023-06-22T01:32:06;24.80;74.20
22006;DHT22;11167;46.988;15.470;2023-06-22T01:34:09;24.80;74.20
22006;DHT22;11167;46.988;15.470;2023-06-22T01:36:11;24.80;74.30
22006;DHT22;11167;46.988;15.470;2023-06-22T01:38:13;24.80;74.30
22006;DHT22;11167;46.988;15.470;2023-06-22T01:40:15;24.70;74.20
22006;DHT22;11167;46.988;15.470;2023-06-22T01:42:16;24.70;74.20
22006;DHT22;11167;46.988;15.470;2023-06-22T01:44:18;24.70;74.20
22006;DHT22;11167;46.988;15.470;2023-06-22T01:46:20;24.70;74.30
22006;DHT22;11167;46.988;15.470;2023-06-22T01:48:22;24.70;74.20
22006;DHT22;11167;46.988;15.470;2023-06-22T01:50:24;24.70;74.30
22006;DHT22;11167;46.988;15.470;2023-06-22T01:52:25;24.60;74.20
22006;DHT22;11167;46.988;15.470;2023-06-22T01:54:26;24.60;74.20
22006;DHT22;11167;46.988;15.470;2023-06-22T01:56:27;24.60;74.20
22006;DHT22;11167;46.988;15.470;2023-06-22T01:58:29;24.60;74.20
22006;DHT22;11167;46.988;15.470;2023-06-22T02:03:03;24.50;74.20
22006;DHT22;11167;46.988;15.470;2023-06-22T02:05:09;24.50;74.20
22006;DHT22;11167;46.988;15.470;2023-06-22T02:07:13;24.50;74.80
22006;DHT22;11167;46.988;15.470;2023-06-22T02:09:17;24.40;74.10
22006;DHT22;11167;46.988;15.470;2023-06-22T02:11:21;24.40;74.20
22006;DHT22;11167;46.988;15.470;2023-06-22T02:13:24;24.40;75.00
22006;DHT22;11167;46.988;15.470;2023-06-22T02:15:25;24.40;74.20
22006;DHT22;11167;46.988;15.470;2023-06-22T02:17:27;24.40;74.20
22006;DHT22;11167;46.988;15.470;2023-06-22T02:19:30;24.40;74.20
22006;DHT22;11167;46.988;15.470;2023-06-22T02:21:33;24.40;74.20
22006;DHT22;11167;46.988;15.470;2023-06-22T02:23:34;24.40;74.20
22006;DHT22;11167;46.988;15.470;2023-06-22T02:25:36;24.30;75.00
22006;DHT22;11167;46.988;15.470;2023-06-22T02:27:37;24.30;74.20
22006;DHT22;11167;46.988;15.470;2023-06-22T02:29:40;24.30;74.20
22006;DHT22;11167;46.988;15.470;2023-06-22T02:31:42;24.20;74.10
22006;DHT22;11167;46.988;15.470;2023-06-22T02:33:43;24.20;74.10
22006;DHT22;11167;46.988;15.470;2023-06-22T02:35:44;24.20;74.20
22006;DHT22;11167;46.988;15.470;2023-06-22T02:37:53;24.20;74.20
22006;DHT22;11167;46.988;15.470;2023-06-22T02:39:55;24.20;74.20
22006;DHT22;11167;46.988;15.470;2023-06-22T02:41:56;24.20;74.20
22006;DHT22;11167;46.988;15.470;2023-06-22T02:43:57;24.10;74.10
22006;DHT22;11167;46.988;15.470;2023-06-22T02:46:19;24.20;74.20
22006;DHT22;11167;46.988;15.470;2023-06-22T02:48:20;24.10;74.10
22006;DHT22;11167;46.988;15.470;2023-06-22T02:50:21;24.10;74.30
22006;DHT22;11167;46.988;15.470;2023-06-22T02:52:22;24.10;74.20
22006;DHT22;11167;46.988;15.470;2023-06-22T02:54:23;24.00;74.10
22006;DHT22;11167;46.988;15.470;2023-06-22T02:56:24;24.00;74.10
22006;DHT22;11167;46.988;15.470;2023-06-22T02:58:26;24.00;74.10
22006;DHT22;11167;46.988;15.470;2023-06-22T03:00:27;24.00;74.20
22006;DHT22;11167;46.988;15.470;2023-06-22T03:02:30;24.00;74.20
22006;DHT22;11167;46.988;15.470;2023-06-22T03:04:31;24.00;74.20
22006;DHT22;11167;46.988;15.470;2023-06-22T03:06:32;23.90;74.10
22006;DHT22;11167;46.988;15.470;2023-06-22T03:08:33;23.90;74.20
22006;DHT22;11167;46.988;15.470;2023-06-22T03:10:35;23.90;74.10
22006;DHT22;11167;46.988;15.470;2023-06-22T03:12:37;23.90;74.10
22006;DHT22;11167;46.988;15.470;2023-06-22T03:14:39;23.90;74.20
22006;DHT22;11167;46.988;15.470;2023-06-22T03:16:40;23.90;74.20
22006;DHT22;11167;46.988;15.470;2023-06-22T03:18:41;23.80;74.10
22006;DHT22;11167;46.988;15.470;2023-06-22T03:20:42;23.80;74.20
22006;DHT22;11167;46.988;15.470;2023-06-22T03:22:43;23.80;74.30
22006;DHT22;11167;46.988;15.470;2023-06-22T03:24:44;23.80;74.20
22006;DHT22;11167;46.988;15.470;2023-06-22T03:26:45;23.80;74.20
22006;DHT22;11167;46.988;15.470;2023-06-22T03:28:47;23.80;74.20
22006;DHT22;11167;46.988;15.470;2023-06-22T03:30:48;23.80;74.20
22006;DHT22;11167;46.988;15.470;2023-06-22T03:32:49;23.70;74.10
22006;DHT22;11167;46.988;15.470;2023-06-22T03:34:50;23.70;74.10
22006;DHT22;11167;46.988;15.470;2023-06-22T03:36:51;23.70;74.20
22006;DHT22;11167;46.988;15.470;2023-06-22T03:38:53;23.70;74.20
22006;DHT22;11167;46.988;15.470;2023-06-22T03:40:54;23.70;74.20
22006;DHT22;11167;46.988;15.470;2023-06-22T03:42:55;23.70;74.20
22006;DHT22;11167;46.988;15.470;2023-06-22T03:44:57;23.60;74.20
22006;DHT22;11167;46.988;15.470;2023-06-22T03:46:58;23.60;74.20
22006;DHT22;11167;46.988;15.470;2023-06-22T03:48:59;23.60;74.20
22006;DHT22;11167;46.988;15.470;2023-06-22T03:51:01;23.60;74.10
22006;DHT22;11167;46.988;15.470;2023-06-22T03:53:04;23.60;74.20
22006;DHT22;11167;46.988;15.470;2023-06-22T03:55:06;23.50;74.10
22006;DHT22;11167;46.988;15.470;2023-06-22T03:57:08;23.50;74.20
22006;DHT22;11167;46.988;15.470;2023-06-22T03:59:09;23.50;74.20
22006;DHT22;11167;46.988;15.470;2023-06-22T04:01:10;23.50;74.20
22006;DHT22;11167;46.988;15.470;2023-06-22T04:03:12;23.50;74.20
22006;DHT22;11167;46.988;15.470;2023-06-22T04:05:14;23.50;74.20
22006;DHT22;11167;46.988;15.470;2023-06-22T04:07:15;23.50;74.30
22006;DHT22;11167;46.988;15.470;2023-06-22T04:09:16;23.40;74.20
22006;DHT22;11167;46.988;15.470;2023-06-22T04:11:17;23.40;74.20
22006;DHT22;11167;46.988;15.470;2023-06-22T04:13:19;23.40;74.30
22006;DHT22;11167;46.988;15.470;2023-06-22T04:15:21;23.40;74.20
22006;DHT22;11167;46.988;15.470;2023-06-22T04:17:23;23.40;74.20
22006;DHT22;11167;46.988;15.470;2023-06-22T04:19:25;23.40;74.30
22006;DHT22;11167;46.988;15.470;2023-06-22T04:21:27;23.40;74.30
22006;DHT22;11167;46.988;15.470;2023-06-22T04:23:28;23.30;74.30
22006;DHT22;11167;46.988;15.470;2023-06-22T04:25:29;23.30;74.30
22006;DHT22;11167;46.988;15.470;2023-06-22T04:27:30;23.30;74.30
22006;DHT22;11167;46.988;15.470;2023-06-22T04:29:32;23.30;74.30
22006;DHT22;11167;46.988;15.470;2023-06-22T04:31:33;23.30;74.30
22006;DHT22;11167;46.988;15.470;2023-06-22T04:33:36;23.20;74.40
22006;DHT22;11167;46.988;15.470;2023-06-22T04:35:40;23.20;74.20
22006;DHT22;11167;46.988;15.470;2023-06-22T04:37:44;23.20;74.40
22006;DHT22;11167;46.988;15.470;2023-06-22T04:39:46;23.20;74.30
22006;DHT22;11167;46.988;15.470;2023-06-22T04:41:47;23.20;74.30
22006;DHT22;11167;46.988;15.470;2023-06-22T04:44:09;23.20;74.40
22006;DHT22;11167;46.988;15.470;2023-06-22T04:46:10;23.30;74.50
22006;DHT22;11167;46.988;15.470;2023-06-22T04:48:11;23.20;74.40
22006;DHT22;11167;46.988;15.470;2023-06-22T04:50:16;23.10;74.30
22006;DHT22;11167;46.988;15.470;2023-06-22T04:52:18;23.10;74.30
22006;DHT22;11167;46.988;15.470;2023-06-22T04:54:20;23.10;74.30
22006;DHT22;11167;46.988;15.470;2023-06-22T04:56:21;23.10;74.30
22006;DHT22;11167;46.988;15.470;2023-06-22T04:58:24;23.10;74.30
22006;DHT22;11167;46.988;15.470;2023-06-22T05:00:27;23.10;74.30
22006;DHT22;11167;46.988;15.470;2023-06-22T05:02:29;23.10;74.40
22006;DHT22;11167;46.988;15.470;2023-06-22T05:04:33;23.10;74.40
22006;DHT22;11167;46.988;15.470;2023-06-22T05:06:36;23.10;74.40
22006;DHT22;11167;46.988;15.470;2023-06-22T05:08:37;23.00;74.30
22006;DHT22;11167;46.988;15.470;2023-06-22T05:10:38;23.00;74.30
22006;DHT22;11167;46.988;15.470;2023-06-22T05:12:40;23.00;74.30
22006;DHT22;11167;46.988;15.470;2023-06-22T05:14:41;23.00;74.40
22006;DHT22;11167;46.988;15.470;2023-06-22T05:16:44;23.00;74.40
22006;DHT22;11167;46.988;15.470;2023-06-22T05:18:46;23.00;74.40
22006;DHT22;11167;46.988;15.470;2023-06-22T05:20:47;23.00;74.40
22006;DHT22;11167;46.988;15.470;2023-06-22T05:22:48;23.00;74.40
22006;DHT22;11167;46.988;15.470;2023-06-22T05:24:49;23.00;74.40
22006;DHT22;11167;46.988;15.470;2023-06-22T05:26:50;23.00;74.40
22006;DHT22;11167;46.988;15.470;2023-06-22T05:28:51;23.00;74.40
22006;DHT22;11167;46.988;15.470;2023-06-22T05:30:52;23.00;74.40
22006;DHT22;11167;46.988;15.470;2023-06-22T05:32:53;23.00;74.40
22006;DHT22;11167;46.988;15.470;2023-06-22T05:34:54;23.00;74.40
22006;DHT22;11167;46.988;15.470;2023-06-22T05:36:55;23.00;74.40
22006;DHT22;11167;46.988;15.470;2023-06-22T05:38:57;22.90;74.40
22006;DHT22;11167;46.988;15.470;2023-06-22T05:40:59;22.90;74.40
22006;DHT22;11167;46.988;15.470;2023-06-22T05:43:00;22.90;74.40
22006;DHT22;11167;46.988;15.470;2023-06-22T05:45:03;22.90;74.40
22006;DHT22;11167;46.988;15.470;2023-06-22T05:47:04;22.90;74.40
22006;DHT22;11167;46.988;15.470;2023-06-22T05:49:05;22.90;75.20
22006;DHT22;11167;46.988;15.470;2023-06-22T05:51:06;22.90;74.50
22006;DHT22;11167;46.988;15.470;2023-06-22T05:53:07;22.90;74.40
22006;DHT22;11167;46.988;15.470;2023-06-22T05:55:09;22.90;74.40
22006;DHT22;11167;46.988;15.470;2023-06-22T05:57:10;22.90;74.40
22006;DHT22;11167;46.988;15.470;2023-06-22T05:59:11;22.90;74.40
22006;DHT22;11167;46.988;15.470;2023-06-22T06:01:13;22.90;74.40
22006;DHT22;11167;46.988;15.470;2023-06-22T06:03:16;22.90;74.40
22006;DHT22;11167;46.988;15.470;2023-06-22T06:05:18;22.80;74.30
22006;DHT22;11167;46.988;15.470;2023-06-22T06:07:20;22.80;74.30
22006;DHT22;11167;46.988;15.470;2023-06-22T06:09:22;22.90;74.40
22006;DHT22;11167;46.988;15.470;2023-06-22T06:11:23;22.80;74.30
22006;DHT22;11167;46.988;15.470;2023-06-22T06:13:25;22.80;74.30
22006;DHT22;11167;46.988;15.470;2023-06-22T06:15:26;22.80;74.30
22006;DHT22;11167;46.988;15.470;2023-06-22T06:17:27;22.80;74.40
22006;DHT22;11167;46.988;15.470;2023-06-22T06:19:28;22.80;74.40
22006;DHT22;11167;46.988;15.470;2023-06-22T06:21:29;22.80;74.40
22006;DHT22;11167;46.988;15.470;2023-06-22T06:23:30;22.80;73.80
22006;DHT22;11167;46.988;15.470;2023-06-22T06:25:31;22.80;74.40
22006;DHT22;11167;46.988;15.470;2023-06-22T06:27:33;22.80;74.40
22006;DHT22;11167;46.988;15.470;2023-06-22T06:29:35;22.80;75.20
22006;DHT22;11167;46.988;15.470;2023-06-22T06:31:36;22.80;74.40
22006;DHT22;11167;46.988;15.470;2023-06-22T06:33:37;22.80;74.50
22006;DHT22;11167;46.988;15.470;2023-06-22T06:35:38;22.80;74.50
22006;DHT22;11167;46.988;15.470;2023-06-22T06:37:41;22.80;74.60
22006;DHT22;11167;46.988;15.470;2023-06-22T06:39:43;22.80;74.50
22006;DHT22;11167;46.988;15.470;2023-06-22T06:41:44;22.80;74.50
22006;DHT22;11167;46.988;15.470;2023-06-22T06:43:45;22.80;74.60
22006;DHT22;11167;46.988;15.470;2023-06-22T06:45:46;22.80;74.60
22006;DHT22;11167;46.988;15.470;2023-06-22T06:47:47;22.80;74.80
22006;DHT22;11167;46.988;15.470;2023-06-22T06:49:48;22.80;74.60
22006;DHT22;11167;46.988;15.470;2023-06-22T06:51:49;22.80;74.60
22006;DHT22;11167;46.988;15.470;2023-06-22T06:53:51;22.80;74.70
22006;DHT22;11167;46.988;15.470;2023-06-22T06:55:52;22.90;74.80
22006;DHT22;11167;46.988;15.470;2023-06-22T06:57:54;22.90;74.80
22006;DHT22;11167;46.988;15.470;2023-06-22T06:59:58;22.90;74.80
22006;DHT22;11167;46.988;15.470;2023-06-22T07:01:59;22.90;74.80
22006;DHT22;11167;46.988;15.470;2023-06-22T07:04:00;22.90;74.80
22006;DHT22;11167;46.988;15.470;2023-06-22T07:06:02;22.90;74.80
22006;DHT22;11167;46.988;15.470;2023-06-22T07:08:04;22.90;74.90
22006;DHT22;11167;46.988;15.470;2023-06-22T07:10:06;22.90;74.90
22006;DHT22;11167;46.988;15.470;2023-06-22T07:12:08;22.90;74.90
22006;DHT22;11167;46.988;15.470;2023-06-22T07:14:09;22.90;75.00
22006;DHT22;11167;46.988;15.470;2023-06-22T07:16:30;22.90;75.00
22006;DHT22;11167;46.988;15.470;2023-06-22T07:18:32;23.00;75.10
22006;DHT22;11167;46.988;15.470;2023-06-22T07:20:33;23.00;75.20
22006;DHT22;11167;46.988;15.470;2023-06-22T07:22:35;23.00;75.20
22006;DHT22;11167;46.988;15.470;2023-06-22T07:24:36;22.90;75.20
22006;DHT22;11167;46.988;15.470;2023-06-22T07:26:38;23.00;75.30
22006;DHT22;11167;46.988;15.470;2023-06-22T07:28:39;23.00;75.30
22006;DHT22;11167;46.988;15.470;2023-06-22T07:30:41;23.00;75.30
22006;DHT22;11167;46.988;15.470;2023-06-22T07:32:42;23.00;76.20
22006;DHT22;11167;46.988;15.470;2023-06-22T07:34:43;23.00;75.30
22006;DHT22;11167;46.988;15.470;2023-06-22T07:36:45;23.10;75.50
22006;DHT22;11167;46.988;15.470;2023-06-22T07:38:46;23.10;75.50
22006;DHT22;11167;46.988;15.470;2023-06-22T07:40:48;23.10;75.50
22006;DHT22;11167;46.988;15.470;2023-06-22T07:42:49;23.10;75.50
22006;DHT22;11167;46.988;15.470;2023-06-22T07:44:53;23.10;75.70
22006;DHT22;11167;46.988;15.470;2023-06-22T07:46:54;23.10;75.80
22006;DHT22;11167;46.988;15.470;2023-06-22T07:48:55;23.10;75.80
22006;DHT22;11167;46.988;15.470;2023-06-22T07:50:57;23.20;75.90
22006;DHT22;11167;46.988;15.470;2023-06-22T07:52:58;23.20;75.90
22006;DHT22;11167;46.988;15.470;2023-06-22T07:54:59;23.20;75.90
22006;DHT22;11167;46.988;15.470;2023-06-22T07:57:02;23.20;75.30
22006;DHT22;11167;46.988;15.470;2023-06-22T07:59:03;23.20;76.10
22006;DHT22;11167;46.988;15.470;2023-06-22T08:01:04;23.20;76.00
22006;DHT22;11167;46.988;15.470;2023-06-22T08:03:07;23.20;76.00
22006;DHT22;11167;46.988;15.470;2023-06-22T08:05:09;23.20;76.10
22006;DHT22;11167;46.988;15.470;2023-06-22T08:07:12;23.20;76.10
22006;DHT22;11167;46.988;15.470;2023-06-22T08:09:13;23.30;76.60
22006;DHT22;11167;46.988;15.470;2023-06-22T08:11:14;23.30;76.20
22006;DHT22;11167;46.988;15.470;2023-06-22T08:13:16;23.30;76.20
22006;DHT22;11167;46.988;15.470;2023-06-22T08:15:17;23.30;76.20
22006;DHT22;11167;46.988;15.470;2023-06-22T08:17:18;23.40;76.20
22006;DHT22;11167;46.988;15.470;2023-06-22T08:19:19;23.40;76.30
22006;DHT22;11167;46.988;15.470;2023-06-22T08:21:20;23.40;76.40
22006;DHT22;11167;46.988;15.470;2023-06-22T08:23:21;23.40;76.40
22006;DHT22;11167;46.988;15.470;2023-06-22T08:25:22;23.40;76.40
22006;DHT22;11167;46.988;15.470;2023-06-22T08:27:23;23.50;76.40
22006;DHT22;11167;46.988;15.470;2023-06-22T08:29:25;23.40;76.40
22006;DHT22;11167;46.988;15.470;2023-06-22T08:31:26;23.50;76.50
22006;DHT22;11167;46.988;15.470;2023-06-22T08:33:27;23.50;76.50
22006;DHT22;11167;46.988;15.470;2023-06-22T08:35:30;23.50;76.50
22006;DHT22;11167;46.988;15.470;2023-06-22T08:37:31;23.50;76.60
22006;DHT22;11167;46.988;15.470;2023-06-22T08:39:34;23.60;76.60
22006;DHT22;11167;46.988;15.470;2023-06-22T08:41:35;23.50;76.70
22006;DHT22;11167;46.988;15.470;2023-06-22T08:43:37;23.60;76.70
22006;DHT22;11167;46.988;15.470;2023-06-22T08:45:38;23.60;76.70
22006;DHT22;11167;46.988;15.470;2023-06-22T08:47:40;23.60;76.70
22006;DHT22;11167;46.988;15.470;2023-06-22T08:49:42;23.60;76.80
22006;DHT22;11167;46.988;15.470;2023-06-22T08:51:43;23.70;76.90
22006;DHT22;11167;46.988;15.470;2023-06-22T08:53:45;23.70;76.90
22006;DHT22;11167;46.988;15.470;2023-06-22T08:55:46;23.70;76.90
22006;DHT22;11167;46.988;15.470;2023-06-22T08:57:47;23.80;77.00
22006;DHT22;11167;46.988;15.470;2023-06-22T08:59:48;23.70;76.90
22006;DHT22;11167;46.988;15.470;2023-06-22T09:01:52;23.80;77.80
22006;DHT22;11167;46.988;15.470;2023-06-22T09:03:52;23.80;78.00
22006;DHT22;11167;46.988;15.470;2023-06-22T09:05:59;23.80;77.30
22006;DHT22;11167;46.988;15.470;2023-06-22T09:08:00;23.80;77.20
22006;DHT22;11167;46.988;15.470;2023-06-22T09:10:01;23.90;77.20
22006;DHT22;11167;46.988;15.470;2023-06-22T09:12:02;23.90;77.20
22006;DHT22;11167;46.988;15.470;2023-06-22T09:14:03;23.90;77.30
22006;DHT22;11167;46.988;15.470;2023-06-22T09:16:05;24.00;77.40
22006;DHT22;11167;46.988;15.470;2023-06-22T09:18:10;24.00;77.40
22006;DHT22;11167;46.988;15.470;2023-06-22T09:20:11;24.00;78.10
22006;DHT22;11167;46.988;15.470;2023-06-22T09:22:12;24.00;77.50
22006;DHT22;11167;46.988;15.470;2023-06-22T09:24:13;24.10;77.50
22006;DHT22;11167;46.988;15.470;2023-06-22T09:26:14;24.10;77.60
22006;DHT22;11167;46.988;15.470;2023-06-22T09:28:16;24.10;77.60
22006;DHT22;11167;46.988;15.470;2023-06-22T09:30:17;24.10;77.70
22006;DHT22;11167;46.988;15.470;2023-06-22T09:32:18;24.20;77.70
22006;DHT22;11167;46.988;15.470;2023-06-22T09:34:19;24.20;77.80
22006;DHT22;11167;46.988;15.470;2023-06-22T09:36:21;24.20;77.90
22006;DHT22;11167;46.988;15.470;2023-06-22T09:38:22;24.30;77.90
22006;DHT22;11167;46.988;15.470;2023-06-22T09:40:23;24.30;77.90
22006;DHT22;11167;46.988;15.470;2023-06-22T09:42:24;24.30;78.00
22006;DHT22;11167;46.988;15.470;2023-06-22T09:44:26;24.40;78.00
22006;DHT22;11167;46.988;15.470;2023-06-22T09:46:27;24.40;78.00
22006;DHT22;11167;46.988;15.470;2023-06-22T09:48:29;24.40;78.10
22006;DHT22;11167;46.988;15.470;2023-06-22T09:50:32;24.40;78.10
22006;DHT22;11167;46.988;15.470;2023-06-22T09:52:33;24.40;78.20
22006;DHT22;11167;46.988;15.470;2023-06-22T09:54:34;24.50;78.10
22006;DHT22;11167;46.988;15.470;2023-06-22T09:56:35;24.50;78.20
22006;DHT22;11167;46.988;15.470;2023-06-22T09:58:38;24.60;78.20
22006;DHT22;11167;46.988;15.470;2023-06-22T10:00:39;24.60;78.30
22006;DHT22;11167;46.988;15.470;2023-06-22T10:02:43;24.60;78.30
22006;DHT22;11167;46.988;15.470;2023-06-22T10:04:44;24.60;78.30
22006;DHT22;11167;46.988;15.470;2023-06-22T10:06:45;24.60;78.30
22006;DHT22;11167;46.988;15.470;2023-06-22T10:08:46;24.70;78.40
22006;DHT22;11167;46.988;15.470;2023-06-22T10:10:49;24.70;78.40
22006;DHT22;11167;46.988;15.470;2023-06-22T10:12:57;24.70;78.40
22006;DHT22;11167;46.988;15.470;2023-06-22T10:15:01;24.80;78.50
22006;DHT22;11167;46.988;15.470;2023-06-22T10:17:02;24.80;78.50
22006;DHT22;11167;46.988;15.470;2023-06-22T10:19:03;24.80;78.50
22006;DHT22;11167;46.988;15.470;2023-06-22T10:21:04;24.80;78.70
22006;DHT22;11167;46.988;15.470;2023-06-22T10:23:05;24.90;78.70
22006;DHT22;11167;46.988;15.470;2023-06-22T10:25:09;24.90;78.70
22006;DHT22;11167;46.988;15.470;2023-06-22T10:27:11;24.90;78.70
22006;DHT22;11167;46.988;15.470;2023-06-22T10:29:12;25.00;78.80
22006;DHT22;11167;46.988;15.470;2023-06-22T10:31:13;25.00;78.80
22006;DHT22;11167;46.988;15.470;2023-06-22T10:33:14;25.00;78.80
22006;DHT22;11167;46.988;15.470;2023-06-22T10:35:15;25.10;78.80
22006;DHT22;11167;46.988;15.470;2023-06-22T10:37:16;25.10;78.90
22006;DHT22;11167;46.988;15.470;2023-06-22T10:39:18;25.10;79.00
22006;DHT22;11167;46.988;15.470;2023-06-22T10:41:19;25.20;79.00
22006;DHT22;11167;46.988;15.470;2023-06-22T10:43:19;25.20;79.00
22006;DHT22;11167;46.988;15.470;2023-06-22T10:45:21;25.20;79.00
22006;DHT22;11167;46.988;15.470;2023-06-22T10:47:22;25.20;79.00
22006;DHT22;11167;46.988;15.470;2023-06-22T10:49:23;25.30;79.00
22006;DHT22;11167;46.988;15.470;2023-06-22T10:51:24;25.30;79.00
22006;DHT22;11167;46.988;15.470;2023-06-22T10:53:26;25.30;79.10
22006;DHT22;11167;46.988;15.470;2023-06-22T10:55:27;25.40;79.10
22006;DHT22;11167;46.988;15.470;2023-06-22T10:57:28;25.40;79.10
22006;DHT22;11167;46.988;15.470;2023-06-22T10:59:29;25.40;79.10
22006;DHT22;11167;46.988;15.470;2023-06-22T11:01:30;25.50;79.20
22006;DHT22;11167;46.988;15.470;2023-06-22T11:03:32;25.50;79.20
22006;DHT22;11167;46.988;15.470;2023-06-22T11:05:34;25.50;79.20
22006;DHT22;11167;46.988;15.470;2023-06-22T11:07:35;25.50;79.30
22006;DHT22;11167;46.988;15.470;2023-06-22T11:09:36;25.60;80.20
22006;DHT22;11167;46.988;15.470;2023-06-22T11:11:37;25.60;79.40
22006;DHT22;11167;46.988;15.470;2023-06-22T11:13:38;25.70;79.50
22006;DHT22;11167;46.988;15.470;2023-06-22T11:15:39;25.70;79.50
22006;DHT22;11167;46.988;15.470;2023-06-22T11:17:40;25.70;79.50
22006;DHT22;11167;46.988;15.470;2023-06-22T11:19:42;25.70;79.50
22006;DHT22;11167;46.988;15.470;2023-06-22T11:21:43;25.70;79.50
22006;DHT22;11167;46.988;15.470;2023-06-22T11:23:45;25.80;79.70
22006;DHT22;11167;46.988;15.470;2023-06-22T11:25:46;25.80;79.60
22006;DHT22;11167;46.988;15.470;2023-06-22T11:27:47;25.80;79.70
22006;DHT22;11167;46.988;15.470;2023-06-22T11:29:48;25.90;79.70
22006;DHT22;11167;46.988;15.470;2023-06-22T11:31:50;25.90;79.80
22006;DHT22;11167;46.988;15.470;2023-06-22T11:33:53;25.90;79.80
22006;DHT22;11167;46.988;15.470;2023-06-22T11:35:55;26.00;79.90
22006;DHT22;11167;46.988;15.470;2023-06-22T11:37:57;26.00;79.90
22006;DHT22;11167;46.988;15.470;2023-06-22T11:40:00;26.00;80.00
22006;DHT22;11167;46.988;15.470;2023-06-22T11:42:01;26.10;80.00
22006;DHT22;11167;46.988;15.470;2023-06-22T11:44:22;26.20;80.10
22006;DHT22;11167;46.988;15.470;2023-06-22T11:46:23;26.10;80.00
22006;DHT22;11167;46.988;15.470;2023-06-22T11:48:24;26.20;80.10
22006;DHT22;11167;46.988;15.470;2023-06-22T11:50:26;26.20;80.20
22006;DHT22;11167;46.988;15.470;2023-06-22T11:52:29;26.30;80.20
22006;DHT22;11167;46.988;15.470;2023-06-22T11:54:30;26.30;80.20
22006;DHT22;11167;46.988;15.470;2023-06-22T11:56:33;26.30;80.20
22006;DHT22;11167;46.988;15.470;2023-06-22T11:58:34;26.40;80.30
22006;DHT22;11167;46.988;15.470;2023-06-22T12:00:35;26.40;80.30
22006;DHT22;11167;46.988;15.470;2023-06-22T12:02:38;26.40;81.10
22006;DHT22;11167;46.988;15.470;2023-06-22T12:04:41;26.50;80.50
22006;DHT22;11167;46.988;15.470;2023-06-22T12:06:42;26.60;80.60
22006;DHT22;11167;46.988;15.470;2023-06-22T12:08:44;26.60;80.60
22006;DHT22;11167;46.988;15.470;2023-06-22T12:10:46;26.60;80.60
22006;DHT22;11167;46.988;15.470;2023-06-22T12:12:47;26.60;80.60
22006;DHT22;11167;46.988;15.470;2023-06-22T12:14:48;26.70;80.60
22006;DHT22;11167;46.988;15.470;2023-06-22T12:16:50;26.70;80.60
22006;DHT22;11167;46.988;15.470;2023-06-22T12:18:51;26.70;80.60
22006;DHT22;11167;46.988;15.470;2023-06-22T12:20:53;26.80;80.70
22006;DHT22;11167;46.988;15.470;2023-06-22T12:23:01;26.80;80.70
22006;DHT22;11167;46.988;15.470;2023-06-22T12:25:22;26.90;80.80
22006;DHT22;11167;46.988;15.470;2023-06-22T12:27:25;26.90;80.80
22006;DHT22;11167;46.988;15.470;2023-06-22T12:29:26;26.90;80.90
22006;DHT22;11167;46.988;15.470;2023-06-22T12:31:28;27.00;80.90
22006;DHT22;11167;46.988;15.470;2023-06-22T12:33:29;27.00;80.90
22006;DHT22;11167;46.988;15.470;2023-06-22T12:35:32;27.00;80.90
22006;DHT22;11167;46.988;15.470;2023-06-22T12:37:33;27.10;81.00
22006;DHT22;11167;46.988;15.470;2023-06-22T12:39:34;27.10;81.00
22006;DHT22;11167;46.988;15.470;2023-06-22T12:41:35;27.20;81.00
22006;DHT22;11167;46.988;15.470;2023-06-22T12:43:40;27.20;81.00